createdAt,value
2017-08-09T00:00:33.667Z,98097.35
2017-08-09T00:03:02.358Z,98096.23
2017-08-09T00:05:30.690Z,98092.47
2017-08-09T00:07:59.028Z,98090.58
2017-08-09T00:10:27.401Z,98096.71
2017-08-09T00:12:56.690Z,98092.85
2017-08-09T00:15:25.805Z,98095.43
2017-08-09T00:17:54.131Z,98092.06
2017-08-09T00:20:22.475Z,98088.08
2017-08-09T00:22:50.835Z,98088.28
2017-08-09T00:25:19.169Z,98090.91
2017-08-09T00:27:47.514Z,98092.93
2017-08-09T00:30:15.843Z,98095.11
2017-08-09T00:32:44.186Z,98100.35
2017-08-09T00:35:12.500Z,98098.66
2017-08-09T00:37:40.866Z,98106.90
2017-08-09T00:40:09.198Z,98108.45
2017-08-09T00:42:37.521Z,98106.89
2017-08-09T00:45:05.871Z,98102.80
2017-08-09T00:47:34.192Z,98107.16
2017-08-09T00:50:02.543Z,98114.47
2017-08-09T00:52:30.881Z,98118.55
2017-08-09T00:54:59.552Z,98114.36
2017-08-09T00:57:27.870Z,98120.15
2017-08-09T00:59:56.223Z,98125.59
2017-08-09T01:02:24.627Z,98127.95
2017-08-09T01:04:52.957Z,98128.45
2017-08-09T01:07:21.312Z,98128.96
2017-08-09T01:09:49.647Z,98121.19
2017-08-09T01:12:18.694Z,98124.64
2017-08-09T01:14:47.409Z,98129.14
2017-08-09T01:17:16.564Z,98133.64
2017-08-09T01:19:44.936Z,98123.77
2017-08-09T01:22:13.269Z,98126.09
2017-08-09T01:24:41.605Z,98126.87
2017-08-09T01:27:09.942Z,98127.15
2017-08-09T01:29:38.542Z,98130.56
2017-08-09T01:32:06.864Z,98140.25
2017-08-09T01:34:35.200Z,98139.88
2017-08-09T01:37:03.569Z,98134.50
2017-08-09T01:39:31.901Z,98135.51
2017-08-09T01:42:00.256Z,98136.59
2017-08-09T01:44:28.600Z,98135.38
2017-08-09T01:46:57.704Z,98138.19
2017-08-09T01:49:26.035Z,98138.73
2017-08-09T01:51:54.371Z,98133.11
2017-08-09T01:54:22.728Z,98137.11
2017-08-09T01:56:51.820Z,98143.33
2017-08-09T01:59:20.458Z,98144.44
2017-08-09T02:01:48.845Z,98148.37
2017-08-09T02:04:17.339Z,98144.62
2017-08-09T02:06:45.666Z,98143.44
2017-08-09T02:09:14.802Z,98140.46
2017-08-09T02:11:43.145Z,98137.35
2017-08-09T02:14:11.483Z,98140.02
2017-08-09T02:16:39.828Z,98137.22
2017-08-09T02:19:08.187Z,98134.81
2017-08-09T02:21:37.688Z,98137.24
2017-08-09T02:24:06.045Z,98143.05
2017-08-09T02:26:35.147Z,98145.34
2017-08-09T02:29:03.516Z,98146.58
2017-08-09T02:31:31.859Z,98147.45
2017-08-09T02:34:00.238Z,98152.74
2017-08-09T02:36:28.572Z,98153.38
2017-08-09T02:38:57.669Z,98154.42
2017-08-09T02:41:26.033Z,98161.38
2017-08-09T02:43:54.388Z,98169.13
2017-08-09T02:46:22.724Z,98160.84
2017-08-09T02:48:51.056Z,98170.40
2017-08-09T02:51:19.645Z,98171.70
2017-08-09T02:53:48.459Z,98176.44
2017-08-09T02:56:17.538Z,98173.18
2017-08-09T02:58:45.885Z,98176.79
2017-08-09T03:01:14.205Z,98175.18
2017-08-09T03:03:43.325Z,98178.07
2017-08-09T03:06:11.648Z,98186.83
2017-08-09T03:08:40.010Z,98189.75
2017-08-09T03:11:08.388Z,98181.11
2017-08-09T03:13:36.706Z,98173.57
2017-08-09T03:16:05.049Z,98182.33
2017-08-09T03:18:33.366Z,98189.17
2017-08-09T03:21:01.696Z,98186.23
2017-08-09T03:23:30.025Z,98191.80
2017-08-09T03:25:58.743Z,98198.38
2017-08-09T03:28:27.082Z,98203.56
2017-08-09T03:30:55.424Z,98211.66
2017-08-09T03:33:23.759Z,98216.50
2017-08-09T03:35:52.843Z,98215.41
2017-08-09T03:38:21.194Z,98220.97
2017-08-09T03:40:49.524Z,98225.13
2017-08-09T03:43:18.940Z,98219.48
2017-08-09T03:45:47.265Z,98223.74
2017-08-09T03:48:15.588Z,98223.41
2017-08-09T03:50:43.950Z,98220.69
2017-08-09T03:53:13.043Z,98221.42
2017-08-09T03:55:41.377Z,98224.95
2017-08-09T03:58:09.700Z,98234.98
2017-08-09T04:00:38.434Z,98246.81
2017-08-09T04:03:06.780Z,98239.14
2017-08-09T04:05:36.469Z,98250.98
2017-08-09T04:08:04.831Z,98253.92
2017-08-09T04:10:33.180Z,98253.53
2017-08-09T04:13:01.563Z,98259.60
2017-08-09T04:15:29.925Z,98256.07
2017-08-09T04:17:58.748Z,98256.28
2017-08-09T04:20:27.073Z,98262.25
2017-08-09T04:22:55.393Z,98268.69
2017-08-09T04:25:23.723Z,98279.63
2017-08-09T04:27:52.049Z,98276.92
2017-08-09T04:30:20.398Z,98277.73
2017-08-09T04:32:48.738Z,98272.06
2017-08-09T04:35:17.112Z,98277.42
2017-08-09T04:37:45.444Z,98279.05
2017-08-09T04:40:13.786Z,98282.88
2017-08-09T04:42:42.166Z,98281.66
2017-08-09T04:45:10.560Z,98286.52
2017-08-09T04:47:38.885Z,98284.70
2017-08-09T04:50:07.269Z,98277.53
2017-08-09T04:52:35.582Z,98286.59
2017-08-09T04:55:03.917Z,98288.94
2017-08-09T04:57:32.285Z,98300.05
2017-08-09T05:00:01.183Z,98304.58
2017-08-09T05:02:29.499Z,98302.08
2017-08-09T05:04:57.855Z,98302.08
2017-08-09T05:07:26.219Z,98306.53
2017-08-09T05:09:54.559Z,98313.60
2017-08-09T05:12:22.928Z,98316.14
2017-08-09T05:14:51.271Z,98314.23
2017-08-09T05:17:19.623Z,98307.67
2017-08-09T05:19:47.958Z,98310.80
2017-08-09T05:22:16.313Z,98310.30
2017-08-09T05:24:44.676Z,98311.39
2017-08-09T05:27:13.033Z,98323.76
2017-08-09T05:29:41.377Z,98317.97
2017-08-09T05:32:09.700Z,98313.73
2017-08-09T05:34:38.819Z,98317.37
2017-08-09T05:37:07.148Z,98319.08
2017-08-09T05:39:35.496Z,98320.23
2017-08-09T05:42:03.821Z,98315.87
2017-08-09T05:44:32.136Z,98324.37
2017-08-09T05:47:00.508Z,98325.79
2017-08-09T05:49:28.831Z,98324.36
2017-08-09T05:51:57.146Z,98327.30
2017-08-09T05:54:25.501Z,98316.13
2017-08-09T05:56:53.867Z,98327.96
2017-08-09T05:59:22.205Z,98323.21
2017-08-09T06:01:50.555Z,98318.63
2017-08-09T06:04:19.664Z,98318.94
2017-08-09T06:06:48.023Z,98312.96
2017-08-09T06:09:16.355Z,98322.95
2017-08-09T06:11:44.711Z,98318.20
2017-08-09T06:14:13.050Z,98318.75
2017-08-09T06:16:42.382Z,98316.61
2017-08-09T06:19:11.489Z,98313.64
2017-08-09T06:21:39.820Z,98312.39
2017-08-09T06:24:08.174Z,98306.70
2017-08-09T06:26:36.496Z,98309.44
2017-08-09T06:29:04.837Z,98309.95
2017-08-09T06:31:33.257Z,98312.47
2017-08-09T06:34:01.622Z,98320.12
2017-08-09T06:36:29.969Z,98320.92
2017-08-09T06:38:58.322Z,98327.08
2017-08-09T06:41:26.689Z,98336.69
2017-08-09T06:43:55.493Z,98333.53
2017-08-09T06:46:23.853Z,98324.56
2017-08-09T06:48:53.017Z,98325.70
2017-08-09T06:51:21.386Z,98335.33
2017-08-09T06:53:49.720Z,98329.39
2017-08-09T06:56:18.042Z,98322.67
2017-08-09T06:58:46.393Z,98328.00
2017-08-09T07:01:14.721Z,98326.99
2017-08-09T07:03:43.071Z,98319.56
2017-08-09T07:06:11.407Z,98325.19
2017-08-09T07:08:39.760Z,98324.36
2017-08-09T07:11:08.111Z,98331.89
2017-08-09T07:13:36.455Z,98329.02
2017-08-09T07:16:04.831Z,98329.58
2017-08-09T07:18:33.161Z,98331.47
2017-08-09T07:21:01.521Z,98340.23
2017-08-09T07:23:29.868Z,98332.66
2017-08-09T07:25:58.970Z,98339.20
2017-08-09T07:28:27.325Z,98330.67
2017-08-09T07:30:55.672Z,98334.81
2017-08-09T07:33:24.026Z,98334.75
2017-08-09T07:35:52.383Z,98325.44
2017-08-09T07:38:21.496Z,98330.55
2017-08-09T07:40:49.867Z,98325.68
2017-08-09T07:43:18.211Z,98324.90
2017-08-09T07:45:46.557Z,98324.39
2017-08-09T07:48:14.909Z,98321.61
2017-08-09T07:50:43.236Z,98332.69
2017-08-09T07:53:12.079Z,98325.22
2017-08-09T07:55:40.394Z,98323.48
2017-08-09T07:58:08.737Z,98320.50
2017-08-09T08:00:37.085Z,98320.03
2017-08-09T08:03:05.402Z,98320.84
2017-08-09T08:05:33.742Z,98318.16
2017-08-09T08:08:02.075Z,98324.28
2017-08-09T08:10:30.445Z,98321.13
2017-08-09T08:12:58.786Z,98327.59
2017-08-09T08:15:27.117Z,98331.78
2017-08-09T08:17:55.470Z,98324.88
2017-08-09T08:20:23.809Z,98314.75
2017-08-09T08:22:52.186Z,98316.13
2017-08-09T08:25:20.539Z,98318.02
2017-08-09T08:27:48.890Z,98320.20
2017-08-09T08:30:17.214Z,98307.53
2017-08-09T08:32:45.598Z,98316.53
2017-08-09T08:35:13.935Z,98324.00
2017-08-09T08:37:42.287Z,98319.75
2017-08-09T08:40:10.644Z,98321.17
2017-08-09T08:42:38.968Z,98326.55
2017-08-09T08:45:07.310Z,98330.02
2017-08-09T08:47:35.628Z,98319.34
2017-08-09T08:50:03.988Z,98322.17
2017-08-09T08:52:32.340Z,98315.80
2017-08-09T08:55:00.673Z,98315.45
2017-08-09T08:57:29.045Z,98310.11
2017-08-09T08:59:57.393Z,98306.19
2017-08-09T09:02:25.755Z,98314.84
2017-08-09T09:04:54.088Z,98316.23
2017-08-09T09:07:22.453Z,98326.47
2017-08-09T09:09:50.837Z,98326.77
2017-08-09T09:12:19.171Z,98332.30
2017-08-09T09:14:47.778Z,98326.33
2017-08-09T09:17:16.106Z,98327.55
2017-08-09T09:19:44.442Z,98335.91
2017-08-09T09:22:12.821Z,98331.70
2017-08-09T09:24:41.163Z,98330.35
2017-08-09T09:27:09.552Z,98333.76
2017-08-09T09:29:37.881Z,98330.84
2017-08-09T09:32:06.244Z,98327.74
2017-08-09T09:34:35.347Z,98327.92
2017-08-09T09:37:03.678Z,98324.91
2017-08-09T09:39:32.024Z,98325.39
2017-08-09T09:42:00.379Z,98320.05
2017-08-09T09:44:29.490Z,98331.18
2017-08-09T09:46:57.847Z,98319.69
2017-08-09T09:49:26.197Z,98325.29
2017-08-09T09:51:54.527Z,98322.09
2017-08-09T09:54:22.873Z,98314.69
2017-08-09T09:56:51.218Z,98315.38
2017-08-09T09:59:19.559Z,98319.69
2017-08-09T10:01:47.893Z,98310.18
2017-08-09T10:04:16.242Z,98302.10
2017-08-09T10:06:44.594Z,98306.38
2017-08-09T10:09:12.947Z,98295.72
2017-08-09T10:11:41.602Z,98294.86
2017-08-09T10:14:09.934Z,98291.64
2017-08-09T10:16:39.034Z,98296.61
2017-08-09T10:19:07.390Z,98288.56
2017-08-09T10:21:35.708Z,98300.43
2017-08-09T10:24:04.049Z,98298.87
2017-08-09T10:26:32.389Z,98301.67
2017-08-09T10:29:00.747Z,98305.69
2017-08-09T10:31:29.117Z,98306.73
2017-08-09T10:33:57.462Z,98303.88
2017-08-09T10:36:25.814Z,98310.98
2017-08-09T10:38:54.157Z,98315.80
2017-08-09T10:41:22.476Z,98321.84
2017-08-09T10:43:50.850Z,98316.10
2017-08-09T10:46:19.172Z,98318.59
2017-08-09T10:48:47.509Z,98318.27
2017-08-09T10:51:15.862Z,98319.95
2017-08-09T10:53:44.202Z,98315.50
2017-08-09T10:56:12.585Z,98319.81
2017-08-09T10:58:40.930Z,98325.81
2017-08-09T11:01:09.263Z,98320.42
2017-08-09T11:03:37.612Z,98325.25
2017-08-09T11:06:05.972Z,98327.73
2017-08-09T11:08:34.305Z,98325.86
2017-08-09T11:11:03.442Z,98331.09
2017-08-09T11:13:31.783Z,98332.42
2017-08-09T11:16:00.132Z,98323.70
2017-08-09T11:18:28.539Z,98323.09
2017-08-09T11:20:56.866Z,98327.47
2017-08-09T11:23:25.230Z,98331.83
2017-08-09T11:25:53.571Z,98332.95
2017-08-09T11:28:22.710Z,98332.67
2017-08-09T11:30:51.046Z,98329.90
2017-08-09T11:33:19.407Z,98333.78
2017-08-09T11:35:47.746Z,98331.57
2017-08-09T11:38:16.752Z,98323.23
2017-08-09T11:40:45.215Z,98327.13
2017-08-09T11:43:13.548Z,98324.41
2017-08-09T11:45:41.885Z,98331.25
2017-08-09T11:48:10.208Z,98323.30
2017-08-09T11:50:38.566Z,98328.58
2017-08-09T11:53:06.948Z,98331.52
2017-08-09T11:55:35.315Z,98322.25
2017-08-09T11:58:03.647Z,98315.14
2017-08-09T12:00:31.955Z,98310.38
2017-08-09T12:03:00.292Z,98317.48
2017-08-09T12:05:28.643Z,98312.23
2017-08-09T12:07:57.008Z,98307.66
2017-08-09T12:10:25.338Z,98314.63
2017-08-09T12:12:54.453Z,98311.73
2017-08-09T12:15:22.792Z,98318.84
2017-08-09T12:17:51.140Z,98316.87
2017-08-09T12:20:19.496Z,98315.30
2017-08-09T12:22:47.824Z,98313.29
2017-08-09T12:25:16.184Z,98309.72
2017-08-09T12:27:44.508Z,98313.92
2017-08-09T12:30:13.473Z,98315.95
2017-08-09T12:32:41.800Z,98314.51
2017-08-09T12:35:10.156Z,98317.59
2017-08-09T12:37:38.511Z,98314.37
2017-08-09T12:40:06.850Z,98319.53
2017-08-09T12:42:35.180Z,98315.95
2017-08-09T12:45:03.490Z,98320.31
2017-08-09T12:47:31.847Z,98319.80
2017-08-09T12:50:00.178Z,98332.48
2017-08-09T12:52:28.559Z,98329.15
2017-08-09T12:54:56.902Z,98328.14
2017-08-09T12:57:25.256Z,98320.73
2017-08-09T12:59:53.577Z,98318.36
2017-08-09T13:02:21.933Z,98318.64
2017-08-09T13:04:56.155Z,98323.58
2017-08-09T13:07:24.955Z,98316.87
2017-08-09T13:09:53.280Z,98316.81
2017-08-09T13:12:21.613Z,98319.55
2017-08-09T13:14:49.955Z,98324.16
2017-08-09T13:17:18.293Z,98320.59
2017-08-09T13:19:46.640Z,98320.72
2017-08-09T13:22:15.018Z,98311.74
2017-08-09T13:24:43.367Z,98309.94
2017-08-09T13:27:11.710Z,98310.47
2017-08-09T13:29:40.039Z,98303.97
2017-08-09T13:32:08.400Z,98307.20
2017-08-09T13:34:36.710Z,98304.25
2017-08-09T13:37:05.057Z,98303.92
2017-08-09T13:39:33.371Z,98293.84
2017-08-09T13:42:02.351Z,98300.14
2017-08-09T13:44:30.698Z,98303.61
2017-08-09T13:46:59.058Z,98308.30
2017-08-09T13:49:27.497Z,98311.31
2017-08-09T13:51:55.833Z,98300.02
2017-08-09T13:54:24.209Z,98300.91
2017-08-09T13:56:52.542Z,98295.73
2017-08-09T13:59:20.901Z,98285.99
2017-08-09T14:01:49.255Z,98294.02
2017-08-09T14:04:17.585Z,98296.66
2017-08-09T14:06:46.698Z,98298.79
2017-08-09T14:09:15.027Z,98300.26
2017-08-09T14:11:44.670Z,98295.69
2017-08-09T14:14:13.507Z,98291.02
2017-08-09T14:16:41.839Z,98285.84
2017-08-09T14:19:11.032Z,98286.82
2017-08-09T14:21:39.360Z,98274.34
2017-08-09T14:24:08.097Z,98274.03
2017-08-09T14:26:36.416Z,98277.64
2017-08-09T14:29:04.760Z,98276.12
2017-08-09T14:31:33.873Z,98277.05
2017-08-09T14:34:02.208Z,98287.63
2017-08-09T14:36:30.561Z,98274.09
2017-08-09T14:38:58.903Z,98271.05
2017-08-09T14:41:27.293Z,98274.77
2017-08-09T14:43:55.619Z,98268.81
2017-08-09T14:46:24.378Z,98269.25
2017-08-09T14:48:52.708Z,98264.22
2017-08-09T14:51:21.802Z,98260.63
2017-08-09T14:53:50.134Z,98264.84
2017-08-09T14:56:18.506Z,98263.67
2017-08-09T14:58:46.839Z,98262.86
2017-08-09T15:01:15.169Z,98266.75
2017-08-09T15:03:43.628Z,98270.70
2017-08-09T15:06:13.101Z,98261.58
2017-08-09T15:08:41.422Z,98259.95
2017-08-09T15:11:09.800Z,98276.68
2017-08-09T15:13:38.853Z,98274.55
2017-08-09T15:16:07.195Z,98277.55
2017-08-09T15:18:35.518Z,98285.92
2017-08-09T15:21:03.871Z,98278.63
2017-08-09T15:23:32.942Z,98276.09
2017-08-09T15:26:01.299Z,98275.97
2017-08-09T15:28:29.627Z,98278.22
2017-08-09T15:30:57.971Z,98280.33
2017-08-09T15:33:26.298Z,98275.33
2017-08-09T15:35:54.644Z,98268.19
2017-08-09T15:38:23.006Z,98266.00
2017-08-09T15:40:51.365Z,98261.89
2017-08-09T15:43:19.708Z,98258.27
2017-08-09T15:45:48.058Z,98260.80
2017-08-09T15:48:16.415Z,98254.92
2017-08-09T15:50:44.753Z,98254.41
2017-08-09T15:53:13.116Z,98261.52
2017-08-09T15:55:41.429Z,98261.98
2017-08-09T15:58:09.783Z,98270.31
2017-08-09T16:00:38.109Z,98268.74
2017-08-09T16:03:06.464Z,98263.63
2017-08-09T16:05:35.297Z,98266.88
2017-08-09T16:08:03.660Z,98272.99
2017-08-09T16:10:32.012Z,98279.48
2017-08-09T16:13:01.162Z,98283.50
2017-08-09T16:15:29.524Z,98277.04
2017-08-09T16:17:57.867Z,98274.92
2017-08-09T16:20:26.225Z,98276.88
2017-08-09T16:22:54.565Z,98279.16
2017-08-09T16:25:23.339Z,98276.94
2017-08-09T16:27:51.678Z,98279.04
2017-08-09T16:30:20.028Z,98278.86
2017-08-09T16:32:48.802Z,98283.38
2017-08-09T16:35:17.155Z,98278.97
2017-08-09T16:37:45.490Z,98282.50
2017-08-09T16:40:13.861Z,98275.73
2017-08-09T16:42:42.240Z,98272.88
2017-08-09T16:45:10.580Z,98271.28
2017-08-09T16:47:39.682Z,98270.63
2017-08-09T16:50:08.024Z,98271.44
2017-08-09T16:52:36.399Z,98271.23
2017-08-09T16:55:04.752Z,98270.33
2017-08-09T16:57:33.122Z,98267.52
2017-08-09T17:00:01.461Z,98263.22
2017-08-09T17:02:31.093Z,98254.34
2017-08-09T17:04:59.419Z,98254.87
2017-08-09T17:07:27.775Z,98254.58
2017-08-09T17:09:56.122Z,98257.54
2017-08-09T17:12:25.054Z,98262.34
2017-08-09T17:14:53.399Z,98262.73
2017-08-09T17:17:21.785Z,98260.19
2017-08-09T17:19:50.139Z,98263.20
2017-08-09T17:22:19.226Z,98255.17
2017-08-09T17:24:47.596Z,98260.03
2017-08-09T17:27:15.953Z,98255.48
2017-08-09T17:29:44.318Z,98263.52
2017-08-09T17:32:12.640Z,98264.59
2017-08-09T17:34:40.989Z,98260.98
2017-08-09T17:37:09.353Z,98267.42
2017-08-09T17:39:37.691Z,98272.09
2017-08-09T17:42:06.808Z,98270.34
2017-08-09T17:44:35.145Z,98271.68
2017-08-09T17:47:03.506Z,98275.12
2017-08-09T17:49:31.831Z,98268.30
2017-08-09T17:52:00.956Z,98272.08
2017-08-09T17:54:31.914Z,98274.45
2017-08-09T17:57:01.491Z,98271.80
2017-08-09T17:59:30.067Z,98274.34
2017-08-09T18:01:58.395Z,98272.00
2017-08-09T18:04:27.307Z,98274.73
2017-08-09T18:06:55.649Z,98268.22
2017-08-09T18:09:24.023Z,98269.25
2017-08-09T18:11:52.354Z,98271.63
2017-08-09T18:14:21.115Z,98261.81
2017-08-09T18:16:49.816Z,98261.63
2017-08-09T18:19:18.512Z,98272.59
2017-08-09T18:21:47.003Z,98270.53
2017-08-09T18:24:17.357Z,98269.77
2017-08-09T18:26:45.726Z,98264.27
2017-08-09T18:29:14.154Z,98268.47
2017-08-09T18:31:42.764Z,98274.80
2017-08-09T18:34:11.094Z,98273.24
2017-08-09T18:36:39.444Z,98271.67
2017-08-09T18:39:07.825Z,98269.83
2017-08-09T18:41:36.194Z,98267.69
2017-08-09T18:44:04.561Z,98249.48
2017-08-09T18:46:32.898Z,98267.64
2017-08-09T18:49:01.538Z,98282.91
2017-08-09T18:51:29.873Z,98293.75
2017-08-09T18:53:58.653Z,98292.39
2017-08-09T18:56:27.029Z,98289.22
2017-08-09T18:58:55.383Z,98292.78
2017-08-09T19:01:24.509Z,98298.67
2017-08-09T19:03:52.867Z,98295.59
2017-08-09T19:06:21.218Z,98311.01
2017-08-09T19:08:49.600Z,98299.95
2017-08-09T19:11:17.939Z,98302.61
2017-08-09T19:13:46.368Z,98309.47
2017-08-09T19:16:14.760Z,98313.77
2017-08-09T19:18:43.128Z,98313.97
2017-08-09T19:21:11.502Z,98314.52
2017-08-09T19:23:39.888Z,98313.94
2017-08-09T19:26:08.220Z,98307.95
2017-08-09T19:28:36.583Z,98314.76
2017-08-09T19:31:05.302Z,98324.27
2017-08-09T19:33:33.653Z,98331.17
2017-08-09T19:36:02.866Z,98334.59
2017-08-09T19:38:31.611Z,98342.27
2017-08-09T19:41:01.240Z,98343.05
2017-08-09T19:43:29.683Z,98343.42
2017-08-09T19:45:58.035Z,98341.42
2017-08-09T19:48:26.408Z,98339.95
2017-08-09T19:50:54.789Z,98339.19
2017-08-09T19:53:23.148Z,98346.34
2017-08-09T19:55:51.478Z,98348.30
2017-08-09T19:58:19.827Z,98346.11
2017-08-09T20:00:48.666Z,98350.94
2017-08-09T20:03:17.038Z,98352.02
2017-08-09T20:05:45.443Z,98359.70
2017-08-09T20:08:13.811Z,98361.55
2017-08-09T20:10:42.857Z,98363.09
2017-08-09T20:13:11.321Z,98365.70
2017-08-09T20:15:39.832Z,98372.29
2017-08-09T20:18:08.184Z,98373.09
2017-08-09T20:20:36.594Z,98374.78
2017-08-09T20:23:04.962Z,98384.38
2017-08-09T20:25:33.349Z,98390.36
2017-08-09T20:28:02.169Z,98385.44
2017-08-09T20:30:30.509Z,98382.67
2017-08-09T20:32:58.916Z,98389.55
2017-08-09T20:35:27.247Z,98391.45
2017-08-09T20:37:55.631Z,98393.92
2017-08-09T20:40:24.655Z,98394.22
2017-08-09T20:42:52.991Z,98392.63
2017-08-09T20:45:21.345Z,98395.95
2017-08-09T20:47:49.684Z,98402.36
2017-08-09T20:50:18.432Z,98415.55
2017-08-09T20:52:46.773Z,98450.02
2017-08-09T20:55:15.113Z,98451.65
2017-08-09T20:57:46.167Z,98448.39
2017-08-09T21:00:14.516Z,98459.66
2017-08-09T21:02:42.874Z,98464.81
2017-08-09T21:05:11.685Z,98458.97
2017-08-09T21:07:40.047Z,98459.71
2017-08-09T21:10:09.180Z,98455.53
2017-08-09T21:12:37.519Z,98453.66
2017-08-09T21:15:05.880Z,98452.53
2017-08-09T21:17:34.204Z,98457.93
2017-08-09T21:20:03.336Z,98456.22
2017-08-09T21:22:32.246Z,98457.98
2017-08-09T21:25:00.989Z,98465.45
2017-08-09T21:27:29.320Z,98470.42
2017-08-09T21:29:57.701Z,98474.05
2017-08-09T21:32:26.050Z,98479.53
2017-08-09T21:34:54.392Z,98479.16
2017-08-09T21:37:23.580Z,98480.08
2017-08-09T21:39:51.897Z,98482.05
2017-08-09T21:42:20.493Z,98475.32
2017-08-09T21:44:48.839Z,98475.34
2017-08-09T21:47:17.943Z,98472.91
2017-08-09T21:49:46.276Z,98479.48
2017-08-09T21:52:14.592Z,98479.96
2017-08-09T21:54:43.701Z,98487.05
2017-08-09T21:57:12.018Z,98492.01
2017-08-09T21:59:40.744Z,98480.30
2017-08-09T22:02:09.800Z,98485.30
2017-08-09T22:04:39.018Z,98479.50
2017-08-09T22:07:08.573Z,98478.13
2017-08-09T22:09:36.946Z,98485.96
2017-08-09T22:12:05.367Z,98481.73
2017-08-09T22:14:33.695Z,98484.17
2017-08-09T22:17:03.131Z,98491.30
2017-08-09T22:19:31.455Z,98491.27
2017-08-09T22:21:59.790Z,98485.28
2017-08-09T22:24:28.149Z,98487.11
2017-08-09T22:26:56.491Z,98486.75
2017-08-09T22:29:24.834Z,98482.72
2017-08-09T22:31:53.159Z,98484.73
2017-08-09T22:34:21.508Z,98480.69
2017-08-09T22:36:49.846Z,98483.77
2017-08-09T22:39:18.189Z,98487.59
2017-08-09T22:41:46.752Z,98491.42
2017-08-09T22:44:15.084Z,98496.27
2017-08-09T22:46:43.424Z,98488.52
2017-08-09T22:49:11.743Z,98488.41
2017-08-09T22:51:40.441Z,98486.99
2017-08-09T22:54:08.769Z,98488.99
2017-08-09T22:56:37.088Z,98489.16
2017-08-09T22:59:06.212Z,98498.98
2017-08-09T23:01:34.541Z,98501.56
2017-08-09T23:04:02.890Z,98501.91
2017-08-09T23:06:31.207Z,98506.08
2017-08-09T23:09:00.581Z,98493.57
2017-08-09T23:11:28.911Z,98482.19
2017-08-09T23:13:57.228Z,98486.56
2017-08-09T23:16:25.560Z,98494.59
2017-08-09T23:18:53.893Z,98491.95
2017-08-09T23:21:22.247Z,98491.27
2017-08-09T23:23:51.268Z,98489.20
2017-08-09T23:26:19.622Z,98486.56
2017-08-09T23:28:47.961Z,98491.91
2017-08-09T23:31:16.286Z,98490.51
2017-08-09T23:33:44.627Z,98487.03
2017-08-09T23:36:13.730Z,98487.74
2017-08-09T23:38:42.076Z,98489.47
2017-08-09T23:41:10.411Z,98485.78
2017-08-09T23:43:38.770Z,98481.20
2017-08-09T23:46:07.123Z,98477.71
2017-08-09T23:48:35.431Z,98474.94
2017-08-09T23:51:04.205Z,98474.26
2017-08-09T23:53:33.421Z,98469.21
2017-08-09T23:56:02.196Z,98465.41
2017-08-09T23:58:31.283Z,98466.70
